sensor_id;sensor_type;location;lat;lon;timestamp;P1;durP1;ratioP1;P2;durP2;ratioP2
25962;SDS011;13760;52.588;13.406;2023-07-29T00:00:45;8.35;;;7.32;;
25962;SDS011;13760;52.588;13.406;2023-07-29T00:03:11;8.77;;;7.88;;
25962;SDS011;13760;52.588;13.406;2023-07-29T00:05:36;10.38;;;7.65;;
25962;SDS011;13760;52.588;13.406;2023-07-29T00:08:02;10.27;;;7.57;;
25962;SDS011;13760;52.588;13.406;2023-07-29T00:10:28;8.07;;;7.28;;
25962;SDS011;13760;52.588;13.406;2023-07-29T00:12:55;8.85;;;7.88;;
25962;SDS011;13760;52.588;13.406;2023-07-29T00:15:21;11.00;;;8.43;;
25962;SDS011;13760;52.588;13.406;2023-07-29T00:17:46;11.25;;;7.72;;
25962;SDS011;13760;52.588;13.406;2023-07-29T00:20:12;8.82;;;8.02;;
25962;SDS011;13760;52.588;13.406;2023-07-29T00:22:37;10.75;;;8.13;;
25962;SDS011;13760;52.588;13.406;2023-07-29T00:25:03;8.68;;;7.88;;
25962;SDS011;13760;52.588;13.406;2023-07-29T00:27:29;10.50;;;7.68;;
25962;SDS011;13760;52.588;13.406;2023-07-29T00:29:54;9.52;;;7.60;;
25962;SDS011;13760;52.588;13.406;2023-07-29T00:32:20;8.95;;;7.50;;
25962;SDS011;13760;52.588;13.406;2023-07-29T00:34:45;8.63;;;7.70;;
25962;SDS011;13760;52.588;13.406;2023-07-29T00:37:10;8.98;;;8.00;;
25962;SDS011;13760;52.588;13.406;2023-07-29T00:39:37;8.70;;;7.35;;
25962;SDS011;13760;52.588;13.406;2023-07-29T00:42:02;8.20;;;7.40;;
25962;SDS011;13760;52.588;13.406;2023-07-29T00:44:29;9.10;;;7.53;;
25962;SDS011;13760;52.588;13.406;2023-07-29T00:46:56;8.73;;;7.78;;
25962;SDS011;13760;52.588;13.406;2023-07-29T00:49:22;9.13;;;7.53;;
25962;SDS011;13760;52.588;13.406;2023-07-29T00:51:48;8.85;;;7.72;;
25962;SDS011;13760;52.588;13.406;2023-07-29T00:54:14;8.50;;;7.70;;
25962;SDS011;13760;52.588;13.406;2023-07-29T00:56:39;8.50;;;7.60;;
25962;SDS011;13760;52.588;13.406;2023-07-29T00:59:05;8.32;;;7.32;;
25962;SDS011;13760;52.588;13.406;2023-07-29T01:01:31;8.32;;;7.50;;
25962;SDS011;13760;52.588;13.406;2023-07-29T01:03:57;8.35;;;7.43;;
25962;SDS011;13760;52.588;13.406;2023-07-29T01:06:30;8.93;;;7.97;;
25962;SDS011;13760;52.588;13.406;2023-07-29T01:17:03;10.60;;;7.93;;
25962;SDS011;13760;52.588;13.406;2023-07-29T01:19:55;10.50;;;8.32;;
25962;SDS011;13760;52.588;13.406;2023-07-29T01:22:32;9.10;;;8.30;;
25962;SDS011;13760;52.588;13.406;2023-07-29T01:24:59;9.30;;;7.72;;
25962;SDS011;13760;52.588;13.406;2023-07-29T01:27:25;9.18;;;8.25;;
25962;SDS011;13760;52.588;13.406;2023-07-29T01:29:51;13.20;;;9.32;;
25962;SDS011;13760;52.588;13.406;2023-07-29T01:32:19;9.18;;;8.38;;
25962;SDS011;13760;52.588;13.406;2023-07-29T01:37:33;8.82;;;8.02;;
25962;SDS011;13760;52.588;13.406;2023-07-29T01:40:00;9.32;;;8.20;;
25962;SDS011;13760;52.588;13.406;2023-07-29T01:42:26;8.13;;;7.22;;
25962;SDS011;13760;52.588;13.406;2023-07-29T01:44:52;9.55;;;8.63;;
25962;SDS011;13760;52.588;13.406;2023-07-29T01:47:18;8.85;;;7.80;;
25962;SDS011;13760;52.588;13.406;2023-07-29T01:49:43;9.20;;;8.32;;
25962;SDS011;13760;52.588;13.406;2023-07-29T01:52:09;12.98;;;7.80;;
25962;SDS011;13760;52.588;13.406;2023-07-29T01:54:34;13.27;;;8.38;;
25962;SDS011;13760;52.588;13.406;2023-07-29T01:57:00;9.75;;;8.65;;
25962;SDS011;13760;52.588;13.406;2023-07-29T01:59:25;11.20;;;7.95;;
25962;SDS011;13760;52.588;13.406;2023-07-29T02:01:51;9.38;;;8.48;;
25962;SDS011;13760;52.588;13.406;2023-07-29T02:04:16;11.05;;;8.10;;
25962;SDS011;13760;52.588;13.406;2023-07-29T02:06:41;8.75;;;7.95;;
25962;SDS011;13760;52.588;13.406;2023-07-29T02:09:07;10.30;;;8.82;;
25962;SDS011;13760;52.588;13.406;2023-07-29T02:11:32;11.27;;;8.93;;
25962;SDS011;13760;52.588;13.406;2023-07-29T02:13:58;10.05;;;8.45;;
25962;SDS011;13760;52.588;13.406;2023-07-29T02:16:23;9.23;;;8.05;;
25962;SDS011;13760;52.588;13.406;2023-07-29T02:18:49;12.45;;;8.30;;
25962;SDS011;13760;52.588;13.406;2023-07-29T02:21:15;9.13;;;8.23;;
25962;SDS011;13760;52.588;13.406;2023-07-29T02:23:40;10.95;;;8.55;;
25962;SDS011;13760;52.588;13.406;2023-07-29T02:26:06;9.60;;;8.70;;
25962;SDS011;13760;52.588;13.406;2023-07-29T02:28:31;10.30;;;8.13;;
25962;SDS011;13760;52.588;13.406;2023-07-29T02:31:08;8.88;;;7.93;;
25962;SDS011;13760;52.588;13.406;2023-07-29T02:33:41;9.50;;;8.57;;
25962;SDS011;13760;52.588;13.406;2023-07-29T02:36:07;9.27;;;8.13;;
25962;SDS011;13760;52.588;13.406;2023-07-29T02:38:33;10.75;;;8.00;;
25962;SDS011;13760;52.588;13.406;2023-07-29T02:40:58;14.60;;;8.90;;
25962;SDS011;13760;52.588;13.406;2023-07-29T02:43:24;12.60;;;9.07;;
25962;SDS011;13760;52.588;13.406;2023-07-29T02:45:49;10.07;;;8.70;;
25962;SDS011;13760;52.588;13.406;2023-07-29T02:48:15;11.20;;;9.05;;
25962;SDS011;13760;52.588;13.406;2023-07-29T02:50:40;10.23;;;9.18;;
25962;SDS011;13760;52.588;13.406;2023-07-29T02:53:05;11.43;;;9.00;;
25962;SDS011;13760;52.588;13.406;2023-07-29T02:55:31;10.55;;;9.52;;
25962;SDS011;13760;52.588;13.406;2023-07-29T02:57:56;13.77;;;9.60;;
25962;SDS011;13760;52.588;13.406;2023-07-29T03:00:22;8.90;;;8.05;;
25962;SDS011;13760;52.588;13.406;2023-07-29T03:02:47;9.45;;;8.55;;
25962;SDS011;13760;52.588;13.406;2023-07-29T03:05:14;10.57;;;9.02;;
25962;SDS011;13760;52.588;13.406;2023-07-29T03:07:39;12.63;;;9.90;;
25962;SDS011;13760;52.588;13.406;2023-07-29T03:10:05;10.00;;;9.10;;
25962;SDS011;13760;52.588;13.406;2023-07-29T03:12:31;12.68;;;8.73;;
25962;SDS011;13760;52.588;13.406;2023-07-29T03:14:56;10.60;;;8.68;;
25962;SDS011;13760;52.588;13.406;2023-07-29T03:17:22;13.77;;;9.15;;
25962;SDS011;13760;52.588;13.406;2023-07-29T03:19:47;10.07;;;9.00;;
25962;SDS011;13760;52.588;13.406;2023-07-29T03:22:13;11.98;;;9.32;;
25962;SDS011;13760;52.588;13.406;2023-07-29T03:24:38;10.73;;;9.68;;
25962;SDS011;13760;52.588;13.406;2023-07-29T03:27:04;12.63;;;10.18;;
25962;SDS011;13760;52.588;13.406;2023-07-29T03:29:30;12.63;;;10.07;;
25962;SDS011;13760;52.588;13.406;2023-07-29T03:31:55;12.65;;;10.25;;
25962;SDS011;13760;52.588;13.406;2023-07-29T03:34:21;13.65;;;10.10;;
25962;SDS011;13760;52.588;13.406;2023-07-29T03:36:46;14.60;;;11.10;;
25962;SDS011;13760;52.588;13.406;2023-07-29T03:39:13;12.25;;;10.68;;
25962;SDS011;13760;52.588;13.406;2023-07-29T03:41:39;10.80;;;9.70;;
25962;SDS011;13760;52.588;13.406;2023-07-29T03:44:04;13.15;;;10.00;;
25962;SDS011;13760;52.588;13.406;2023-07-29T03:46:30;11.20;;;10.00;;
25962;SDS011;13760;52.588;13.406;2023-07-29T03:48:56;13.07;;;10.50;;
25962;SDS011;13760;52.588;13.406;2023-07-29T03:51:22;10.70;;;9.60;;
25962;SDS011;13760;52.588;13.406;2023-07-29T03:53:49;13.35;;;10.60;;
25962;SDS011;13760;52.588;13.406;2023-07-29T03:56:15;13.60;;;11.45;;
25962;SDS011;13760;52.588;13.406;2023-07-29T03:58:40;13.25;;;10.25;;
25962;SDS011;13760;52.588;13.406;2023-07-29T04:01:06;13.32;;;11.50;;
25962;SDS011;13760;52.588;13.406;2023-07-29T04:03:33;12.55;;;11.27;;
25962;SDS011;13760;52.588;13.406;2023-07-29T04:05:59;13.95;;;10.95;;
25962;SDS011;13760;52.588;13.406;2023-07-29T04:08:24;12.85;;;10.90;;
25962;SDS011;13760;52.588;13.406;2023-07-29T04:10:50;15.00;;;11.70;;
25962;SDS011;13760;52.588;13.406;2023-07-29T04:13:16;11.98;;;10.82;;
25962;SDS011;13760;52.588;13.406;2023-07-29T04:15:44;13.13;;;11.82;;
25962;SDS011;13760;52.588;13.406;2023-07-29T04:18:10;12.88;;;11.57;;
25962;SDS011;13760;52.588;13.406;2023-07-29T04:20:36;12.90;;;11.57;;
25962;SDS011;13760;52.588;13.406;2023-07-29T04:23:01;12.77;;;11.48;;
25962;SDS011;13760;52.588;13.406;2023-07-29T04:25:27;12.35;;;10.93;;
25962;SDS011;13760;52.588;13.406;2023-07-29T04:27:53;16.65;;;12.30;;
25962;SDS011;13760;52.588;13.406;2023-07-29T04:30:19;12.70;;;11.40;;
25962;SDS011;13760;52.588;13.406;2023-07-29T04:32:44;14.82;;;11.85;;
25962;SDS011;13760;52.588;13.406;2023-07-29T04:35:13;13.35;;;12.05;;
25962;SDS011;13760;52.588;13.406;2023-07-29T04:37:42;15.07;;;12.93;;
25962;SDS011;13760;52.588;13.406;2023-07-29T04:40:07;13.40;;;12.00;;
25962;SDS011;13760;52.588;13.406;2023-07-29T04:42:33;14.10;;;11.50;;
25962;SDS011;13760;52.588;13.406;2023-07-29T04:44:59;14.93;;;12.70;;
25962;SDS011;13760;52.588;13.406;2023-07-29T04:47:24;13.85;;;12.30;;
25962;SDS011;13760;52.588;13.406;2023-07-29T04:49:52;12.80;;;11.50;;
25962;SDS011;13760;52.588;13.406;2023-07-29T04:52:18;14.43;;;12.63;;
25962;SDS011;13760;52.588;13.406;2023-07-29T04:54:44;14.70;;;12.40;;
25962;SDS011;13760;52.588;13.406;2023-07-29T04:57:10;14.00;;;12.35;;
25962;SDS011;13760;52.588;13.406;2023-07-29T04:59:35;14.38;;;12.65;;
25962;SDS011;13760;52.588;13.406;2023-07-29T05:02:01;15.43;;;11.73;;
25962;SDS011;13760;52.588;13.406;2023-07-29T05:04:26;12.73;;;11.38;;
25962;SDS011;13760;52.588;13.406;2023-07-29T05:06:52;15.25;;;13.20;;
25962;SDS011;13760;52.588;13.406;2023-07-29T05:09:18;15.23;;;12.43;;
25962;SDS011;13760;52.588;13.406;2023-07-29T05:11:49;14.15;;;12.70;;
25962;SDS011;13760;52.588;13.406;2023-07-29T05:14:16;14.07;;;12.55;;
25962;SDS011;13760;52.588;13.406;2023-07-29T05:16:43;13.93;;;12.63;;
25962;SDS011;13760;52.588;13.406;2023-07-29T05:19:09;13.50;;;12.18;;
25962;SDS011;13760;52.588;13.406;2023-07-29T05:21:34;13.57;;;12.27;;
25962;SDS011;13760;52.588;13.406;2023-07-29T05:24:00;16.52;;;12.85;;
25962;SDS011;13760;52.588;13.406;2023-07-29T05:26:31;15.07;;;12.60;;
25962;SDS011;13760;52.588;13.406;2023-07-29T05:28:57;13.23;;;11.75;;
25962;SDS011;13760;52.588;13.406;2023-07-29T05:31:28;13.40;;;12.10;;
25962;SDS011;13760;52.588;13.406;2023-07-29T05:33:57;11.93;;;10.73;;
25962;SDS011;13760;52.588;13.406;2023-07-29T05:36:29;14.15;;;12.75;;
25962;SDS011;13760;52.588;13.406;2023-07-29T05:38:58;11.38;;;10.27;;
25962;SDS011;13760;52.588;13.406;2023-07-29T05:41:23;14.63;;;11.25;;
25962;SDS011;13760;52.588;13.406;2023-07-29T05:43:51;12.82;;;11.52;;
25962;SDS011;13760;52.588;13.406;2023-07-29T05:46:16;13.88;;;11.57;;
25962;SDS011;13760;52.588;13.406;2023-07-29T05:48:42;11.75;;;10.55;;
25962;SDS011;13760;52.588;13.406;2023-07-29T05:51:07;10.70;;;9.70;;
25962;SDS011;13760;52.588;13.406;2023-07-29T05:53:33;10.85;;;9.32;;
25962;SDS011;13760;52.588;13.406;2023-07-29T05:56:01;10.25;;;8.82;;
25962;SDS011;13760;52.588;13.406;2023-07-29T05:58:27;10.82;;;8.40;;
25962;SDS011;13760;52.588;13.406;2023-07-29T06:00:55;9.50;;;8.30;;
25962;SDS011;13760;52.588;13.406;2023-07-29T06:03:20;9.55;;;8.60;;
25962;SDS011;13760;52.588;13.406;2023-07-29T06:05:46;9.95;;;8.48;;
25962;SDS011;13760;52.588;13.406;2023-07-29T06:08:11;8.73;;;7.82;;
25962;SDS011;13760;52.588;13.406;2023-07-29T06:10:37;10.20;;;7.80;;
25962;SDS011;13760;52.588;13.406;2023-07-29T06:13:05;8.38;;;7.45;;
25962;SDS011;13760;52.588;13.406;2023-07-29T06:15:31;9.45;;;8.57;;
25962;SDS011;13760;52.588;13.406;2023-07-29T06:17:56;10.95;;;7.85;;
25962;SDS011;13760;52.588;13.406;2023-07-29T06:20:24;8.93;;;7.53;;
25962;SDS011;13760;52.588;13.406;2023-07-29T06:22:49;11.10;;;8.35;;
25962;SDS011;13760;52.588;13.406;2023-07-29T06:25:15;8.48;;;7.47;;
25962;SDS011;13760;52.588;13.406;2023-07-29T06:27:41;9.60;;;7.43;;
25962;SDS011;13760;52.588;13.406;2023-07-29T06:30:06;11.10;;;7.22;;
25962;SDS011;13760;52.588;13.406;2023-07-29T06:32:32;8.40;;;7.28;;
25962;SDS011;13760;52.588;13.406;2023-07-29T06:34:58;9.10;;;7.05;;
25962;SDS011;13760;52.588;13.406;2023-07-29T06:37:24;7.72;;;7.03;;
25962;SDS011;13760;52.588;13.406;2023-07-29T06:39:49;7.70;;;7.00;;
25962;SDS011;13760;52.588;13.406;2023-07-29T06:42:15;7.85;;;7.10;;
25962;SDS011;13760;52.588;13.406;2023-07-29T06:44:46;7.32;;;6.72;;
25962;SDS011;13760;52.588;13.406;2023-07-29T06:47:12;9.93;;;6.70;;
25962;SDS011;13760;52.588;13.406;2023-07-29T06:52:57;8.35;;;7.55;;
25962;SDS011;13760;52.588;13.406;2023-07-29T06:55:22;7.78;;;7.07;;
25962;SDS011;13760;52.588;13.406;2023-07-29T06:57:48;7.40;;;6.72;;
25962;SDS011;13760;52.588;13.406;2023-07-29T07:00:14;7.68;;;6.40;;
25962;SDS011;13760;52.588;13.406;2023-07-29T07:02:39;7.97;;;6.72;;
25962;SDS011;13760;52.588;13.406;2023-07-29T07:05:08;8.32;;;7.22;;
25962;SDS011;13760;52.588;13.406;2023-07-29T07:07:36;7.72;;;6.88;;
25962;SDS011;13760;52.588;13.406;2023-07-29T07:10:02;10.90;;;6.88;;
25962;SDS011;13760;52.588;13.406;2023-07-29T07:12:31;9.52;;;7.85;;
25962;SDS011;13760;52.588;13.406;2023-07-29T07:14:56;8.77;;;7.50;;
25962;SDS011;13760;52.588;13.406;2023-07-29T07:17:22;9.57;;;7.65;;
25962;SDS011;13760;52.588;13.406;2023-07-29T07:19:48;7.43;;;6.75;;
25962;SDS011;13760;52.588;13.406;2023-07-29T07:22:13;7.40;;;6.70;;
25962;SDS011;13760;52.588;13.406;2023-07-29T07:41:40;8.88;;;8.05;;
25962;SDS011;13760;52.588;13.406;2023-07-29T07:44:36;7.95;;;7.30;;
25962;SDS011;13760;52.588;13.406;2023-07-29T08:00:37;7.28;;;6.57;;
25962;SDS011;13760;52.588;13.406;2023-07-29T08:03:12;7.57;;;6.45;;
25962;SDS011;13760;52.588;13.406;2023-07-29T08:05:55;7.30;;;6.70;;
25962;SDS011;13760;52.588;13.406;2023-07-29T08:08:34;8.18;;;6.30;;
25962;SDS011;13760;52.588;13.406;2023-07-29T08:14:18;7.03;;;5.32;;
25962;SDS011;13760;52.588;13.406;2023-07-29T08:16:52;6.63;;;5.72;;
25962;SDS011;13760;52.588;13.406;2023-07-29T08:19:26;6.78;;;6.05;;
25962;SDS011;13760;52.588;13.406;2023-07-29T08:22:32;5.72;;;5.30;;
25962;SDS011;13760;52.588;13.406;2023-07-29T08:29:07;8.27;;;6.45;;
25962;SDS011;13760;52.588;13.406;2023-07-29T08:37:39;6.47;;;5.80;;
25962;SDS011;13760;52.588;13.406;2023-07-29T08:40:10;7.72;;;5.40;;
25962;SDS011;13760;52.588;13.406;2023-07-29T08:45:52;5.55;;;4.93;;
25962;SDS011;13760;52.588;13.406;2023-07-29T08:48:19;5.10;;;4.47;;
25962;SDS011;13760;52.588;13.406;2023-07-29T08:50:52;5.82;;;3.85;;
25962;SDS011;13760;52.588;13.406;2023-07-29T08:53:18;4.43;;;4.00;;
25962;SDS011;13760;52.588;13.406;2023-07-29T08:55:44;5.32;;;4.03;;
25962;SDS011;13760;52.588;13.406;2023-07-29T08:58:10;4.38;;;3.75;;
25962;SDS011;13760;52.588;13.406;2023-07-29T09:00:36;4.07;;;3.78;;
25962;SDS011;13760;52.588;13.406;2023-07-29T09:03:02;3.90;;;3.60;;
25962;SDS011;13760;52.588;13.406;2023-07-29T09:05:32;4.38;;;3.95;;
25962;SDS011;13760;52.588;13.406;2023-07-29T09:07:58;6.28;;;3.90;;
25962;SDS011;13760;52.588;13.406;2023-07-29T09:10:25;5.05;;;3.50;;
25962;SDS011;13760;52.588;13.406;2023-07-29T09:12:51;4.43;;;3.55;;
25962;SDS011;13760;52.588;13.406;2023-07-29T09:15:30;4.00;;;3.67;;
25962;SDS011;13760;52.588;13.406;2023-07-29T09:17:56;5.55;;;3.67;;
25962;SDS011;13760;52.588;13.406;2023-07-29T09:20:29;4.25;;;3.60;;
25962;SDS011;13760;52.588;13.406;2023-07-29T09:22:55;4.22;;;3.55;;
25962;SDS011;13760;52.588;13.406;2023-07-29T09:25:26;4.88;;;3.80;;
25962;SDS011;13760;52.588;13.406;2023-07-29T09:27:58;3.97;;;3.58;;
25962;SDS011;13760;52.588;13.406;2023-07-29T09:30:25;5.03;;;3.28;;
25962;SDS011;13760;52.588;13.406;2023-07-29T09:32:57;6.07;;;3.28;;
25962;SDS011;13760;52.588;13.406;2023-07-29T09:35:24;5.90;;;3.50;;
25962;SDS011;13760;52.588;13.406;2023-07-29T09:37:52;5.38;;;3.60;;
25962;SDS011;13760;52.588;13.406;2023-07-29T09:40:18;3.47;;;3.00;;
25962;SDS011;13760;52.588;13.406;2023-07-29T09:42:47;4.18;;;3.78;;
25962;SDS011;13760;52.588;13.406;2023-07-29T09:47:51;3.95;;;3.00;;
25962;SDS011;13760;52.588;13.406;2023-07-29T09:50:17;7.57;;;3.20;;
25962;SDS011;13760;52.588;13.406;2023-07-29T09:52:43;5.50;;;3.30;;
25962;SDS011;13760;52.588;13.406;2023-07-29T09:55:10;4.25;;;3.35;;
25962;SDS011;13760;52.588;13.406;2023-07-29T09:57:37;4.05;;;3.13;;
25962;SDS011;13760;52.588;13.406;2023-07-29T10:00:04;4.07;;;3.20;;
25962;SDS011;13760;52.588;13.406;2023-07-29T10:02:35;3.55;;;3.10;;
25962;SDS011;13760;52.588;13.406;2023-07-29T10:05:02;5.95;;;3.30;;
25962;SDS011;13760;52.588;13.406;2023-07-29T10:07:29;6.80;;;2.95;;
25962;SDS011;13760;52.588;13.406;2023-07-29T10:09:55;3.22;;;2.92;;
25962;SDS011;13760;52.588;13.406;2023-07-29T10:12:22;4.43;;;3.40;;
25962;SDS011;13760;52.588;13.406;2023-07-29T10:14:49;4.47;;;2.90;;
25962;SDS011;13760;52.588;13.406;2023-07-29T10:17:15;3.47;;;2.97;;
25962;SDS011;13760;52.588;13.406;2023-07-29T10:19:41;4.22;;;3.03;;
25962;SDS011;13760;52.588;13.406;2023-07-29T10:22:09;3.17;;;2.88;;
25962;SDS011;13760;52.588;13.406;2023-07-29T10:24:38;3.75;;;2.70;;
25962;SDS011;13760;52.588;13.406;2023-07-29T10:27:06;3.60;;;2.80;;
25962;SDS011;13760;52.588;13.406;2023-07-29T10:29:36;2.88;;;2.53;;
25962;SDS011;13760;52.588;13.406;2023-07-29T10:32:04;2.80;;;2.60;;
25962;SDS011;13760;52.588;13.406;2023-07-29T10:34:31;2.80;;;2.60;;
25962;SDS011;13760;52.588;13.406;2023-07-29T10:36:57;2.97;;;2.70;;
25962;SDS011;13760;52.588;13.406;2023-07-29T10:39:24;4.22;;;2.85;;
25962;SDS011;13760;52.588;13.406;2023-07-29T10:42:00;3.42;;;2.70;;
25962;SDS011;13760;52.588;13.406;2023-07-29T10:49:51;4.78;;;2.45;;
25962;SDS011;13760;52.588;13.406;2023-07-29T10:54:59;3.17;;;2.13;;
25962;SDS011;13760;52.588;13.406;2023-07-29T10:57:35;3.25;;;2.08;;
25962;SDS011;13760;52.588;13.406;2023-07-29T11:00:03;2.50;;;2.30;;
25962;SDS011;13760;52.588;13.406;2023-07-29T11:02:34;3.60;;;2.45;;
25962;SDS011;13760;52.588;13.406;2023-07-29T11:05:15;4.38;;;2.25;;
25962;SDS011;13760;52.588;13.406;2023-07-29T11:07:47;5.68;;;2.65;;
25962;SDS011;13760;52.588;13.406;2023-07-29T11:10:13;4.13;;;2.38;;
25962;SDS011;13760;52.588;13.406;2023-07-29T11:12:49;2.30;;;2.10;;
25962;SDS011;13760;52.588;13.406;2023-07-29T11:15:17;2.53;;;2.30;;
25962;SDS011;13760;52.588;13.406;2023-07-29T11:17:54;3.75;;;2.53;;
25962;SDS011;13760;52.588;13.406;2023-07-29T11:20:25;6.43;;;2.92;;
25962;SDS011;13760;52.588;13.406;2023-07-29T11:22:55;26.02;;;5.22;;
25962;SDS011;13760;52.588;13.406;2023-07-29T11:25:22;15.75;;;3.60;;
25962;SDS011;13760;52.588;13.406;2023-07-29T11:27:48;41.25;;;4.55;;
25962;SDS011;13760;52.588;13.406;2023-07-29T11:30:16;13.85;;;3.25;;
25962;SDS011;13760;52.588;13.406;2023-07-29T11:32:42;9.48;;;2.85;;
25962;SDS011;13760;52.588;13.406;2023-07-29T11:35:14;5.72;;;1.98;;
25962;SDS011;13760;52.588;13.406;2023-07-29T11:37:41;4.57;;;1.92;;
25962;SDS011;13760;52.588;13.406;2023-07-29T11:40:09;6.90;;;2.03;;
25962;SDS011;13760;52.588;13.406;2023-07-29T11:42:38;3.95;;;2.20;;
25962;SDS011;13760;52.588;13.406;2023-07-29T11:45:04;5.10;;;2.33;;
25962;SDS011;13760;52.588;13.406;2023-07-29T11:47:33;7.20;;;3.00;;
25962;SDS011;13760;52.588;13.406;2023-07-29T11:50:02;7.28;;;3.40;;
25962;SDS011;13760;52.588;13.406;2023-07-29T11:52:29;9.45;;;4.03;;
25962;SDS011;13760;52.588;13.406;2023-07-29T11:54:57;7.78;;;4.20;;
25962;SDS011;13760;52.588;13.406;2023-07-29T11:57:24;10.63;;;4.22;;
25962;SDS011;13760;52.588;13.406;2023-07-29T11:59:50;8.35;;;3.70;;
25962;SDS011;13760;52.588;13.406;2023-07-29T12:02:16;7.57;;;3.10;;
25962;SDS011;13760;52.588;13.406;2023-07-29T12:04:43;6.03;;;3.35;;
25962;SDS011;13760;52.588;13.406;2023-07-29T12:07:11;7.25;;;3.90;;
25962;SDS011;13760;52.588;13.406;2023-07-29T12:09:38;6.97;;;3.72;;
25962;SDS011;13760;52.588;13.406;2023-07-29T12:12:04;8.52;;;4.25;;
25962;SDS011;13760;52.588;13.406;2023-07-29T12:14:31;8.48;;;3.90;;
25962;SDS011;13760;52.588;13.406;2023-07-29T12:16:59;5.00;;;3.55;;
25962;SDS011;13760;52.588;13.406;2023-07-29T12:19:30;5.47;;;4.38;;
25962;SDS011;13760;52.588;13.406;2023-07-29T12:21:58;9.23;;;5.00;;
25962;SDS011;13760;52.588;13.406;2023-07-29T12:24:23;8.57;;;4.50;;
25962;SDS011;13760;52.588;13.406;2023-07-29T12:26:48;8.75;;;4.47;;
25962;SDS011;13760;52.588;13.406;2023-07-29T12:29:15;6.35;;;4.30;;
25962;SDS011;13760;52.588;13.406;2023-07-29T12:31:41;9.18;;;4.45;;
25962;SDS011;13760;52.588;13.406;2023-07-29T12:34:08;6.88;;;4.22;;
25962;SDS011;13760;52.588;13.406;2023-07-29T12:36:41;6.97;;;4.43;;
25962;SDS011;13760;52.588;13.406;2023-07-29T12:39:18;7.53;;;3.53;;
25962;SDS011;13760;52.588;13.406;2023-07-29T12:41:45;4.93;;;3.30;;
25962;SDS011;13760;52.588;13.406;2023-07-29T12:44:10;4.43;;;3.30;;
25962;SDS011;13760;52.588;13.406;2023-07-29T12:46:36;4.07;;;3.30;;
25962;SDS011;13760;52.588;13.406;2023-07-29T12:49:02;4.43;;;3.05;;
25962;SDS011;13760;52.588;13.406;2023-07-29T12:51:27;4.75;;;3.53;;
25962;SDS011;13760;52.588;13.406;2023-07-29T12:53:53;5.82;;;4.00;;
25962;SDS011;13760;52.588;13.406;2023-07-29T12:56:19;5.80;;;4.15;;
25962;SDS011;13760;52.588;13.406;2023-07-29T12:58:45;5.50;;;4.53;;
25962;SDS011;13760;52.588;13.406;2023-07-29T13:01:10;7.40;;;4.93;;
25962;SDS011;13760;52.588;13.406;2023-07-29T13:06:07;6.35;;;5.32;;
25962;SDS011;13760;52.588;13.406;2023-07-29T13:08:32;7.88;;;4.60;;
25962;SDS011;13760;52.588;13.406;2023-07-29T13:10:58;8.13;;;4.72;;
25962;SDS011;13760;52.588;13.406;2023-07-29T13:13:23;6.45;;;5.80;;
25962;SDS011;13760;52.588;13.406;2023-07-29T13:15:49;6.97;;;5.70;;
25962;SDS011;13760;52.588;13.406;2023-07-29T13:18:17;6.47;;;5.65;;
25962;SDS011;13760;52.588;13.406;2023-07-29T13:20:43;6.05;;;5.50;;
25962;SDS011;13760;52.588;13.406;2023-07-29T13:23:08;6.55;;;5.60;;
25962;SDS011;13760;52.588;13.406;2023-07-29T13:25:34;6.00;;;5.43;;
25962;SDS011;13760;52.588;13.406;2023-07-29T13:28:02;7.72;;;5.80;;
25962;SDS011;13760;52.588;13.406;2023-07-29T13:30:28;5.07;;;4.60;;
25962;SDS011;13760;52.588;13.406;2023-07-29T13:32:54;5.53;;;4.75;;
25962;SDS011;13760;52.588;13.406;2023-07-29T13:35:20;5.20;;;4.47;;
25962;SDS011;13760;52.588;13.406;2023-07-29T13:37:51;4.65;;;4.20;;
25962;SDS011;13760;52.588;13.406;2023-07-29T13:40:16;7.55;;;4.47;;
25962;SDS011;13760;52.588;13.406;2023-07-29T13:42:42;5.38;;;4.57;;
25962;SDS011;13760;52.588;13.406;2023-07-29T13:45:08;5.10;;;3.10;;
25962;SDS011;13760;52.588;13.406;2023-07-29T13:47:34;3.75;;;3.17;;
25962;SDS011;13760;52.588;13.406;2023-07-29T13:49:59;2.83;;;2.45;;
25962;SDS011;13760;52.588;13.406;2023-07-29T13:52:25;4.80;;;2.33;;
25962;SDS011;13760;52.588;13.406;2023-07-29T13:54:51;2.17;;;2.08;;
25962;SDS011;13760;52.588;13.406;2023-07-29T13:57:16;2.90;;;1.98;;
25962;SDS011;13760;52.588;13.406;2023-07-29T13:59:42;2.08;;;1.70;;
25962;SDS011;13760;52.588;13.406;2023-07-29T14:02:07;1.63;;;1.52;;
25962;SDS011;13760;52.588;13.406;2023-07-29T14:04:33;1.98;;;1.60;;
25962;SDS011;13760;52.588;13.406;2023-07-29T14:06:59;2.13;;;1.40;;
25962;SDS011;13760;52.588;13.406;2023-07-29T14:09:25;2.03;;;1.70;;
25962;SDS011;13760;52.588;13.406;2023-07-29T14:11:51;1.98;;;1.70;;
25962;SDS011;13760;52.588;13.406;2023-07-29T14:14:17;1.60;;;1.50;;
25962;SDS011;13760;52.588;13.406;2023-07-29T14:16:43;1.48;;;1.30;;
25962;SDS011;13760;52.588;13.406;2023-07-29T14:19:08;1.60;;;1.50;;
25962;SDS011;13760;52.588;13.406;2023-07-29T14:21:34;1.55;;;1.35;;
25962;SDS011;13760;52.588;13.406;2023-07-29T14:23:59;2.15;;;1.38;;
25962;SDS011;13760;52.588;13.406;2023-07-29T14:26:25;1.40;;;1.10;;
25962;SDS011;13760;52.588;13.406;2023-07-29T14:28:53;2.58;;;1.13;;
25962;SDS011;13760;52.588;13.406;2023-07-29T14:31:22;1.58;;;1.23;;
25962;SDS011;13760;52.588;13.406;2023-07-29T14:33:51;1.83;;;1.40;;
25962;SDS011;13760;52.588;13.406;2023-07-29T14:36:27;3.00;;;1.50;;
25962;SDS011;13760;52.588;13.406;2023-07-29T14:38:54;2.38;;;1.50;;
25962;SDS011;13760;52.588;13.406;2023-07-29T14:41:20;1.60;;;1.27;;
25962;SDS011;13760;52.588;13.406;2023-07-29T14:43:46;1.42;;;1.27;;
25962;SDS011;13760;52.588;13.406;2023-07-29T14:46:11;2.75;;;1.52;;
25962;SDS011;13760;52.588;13.406;2023-07-29T14:48:40;1.83;;;1.50;;
25962;SDS011;13760;52.588;13.406;2023-07-29T14:51:08;2.08;;;1.58;;
25962;SDS011;13760;52.588;13.406;2023-07-29T14:53:39;2.38;;;1.75;;
25962;SDS011;13760;52.588;13.406;2023-07-29T14:56:10;1.58;;;1.48;;
25962;SDS011;13760;52.588;13.406;2023-07-29T14:58:35;1.98;;;1.50;;
25962;SDS011;13760;52.588;13.406;2023-07-29T15:01:01;2.60;;;1.50;;
25962;SDS011;13760;52.588;13.406;2023-07-29T15:03:27;3.33;;;1.58;;
25962;SDS011;13760;52.588;13.406;2023-07-29T15:05:52;2.42;;;1.65;;
25962;SDS011;13760;52.588;13.406;2023-07-29T15:08:18;2.63;;;1.38;;
25962;SDS011;13760;52.588;13.406;2023-07-29T15:10:45;3.22;;;1.58;;
25962;SDS011;13760;52.588;13.406;2023-07-29T15:13:11;1.92;;;1.60;;
25962;SDS011;13760;52.588;13.406;2023-07-29T15:15:40;2.03;;;1.83;;
25962;SDS011;13760;52.588;13.406;2023-07-29T15:18:09;2.05;;;1.85;;
25962;SDS011;13760;52.588;13.406;2023-07-29T15:20:35;1.73;;;1.63;;
25962;SDS011;13760;52.588;13.406;2023-07-29T15:23:04;2.55;;;1.95;;
25962;SDS011;13760;52.588;13.406;2023-07-29T15:25:33;6.07;;;2.00;;
25962;SDS011;13760;52.588;13.406;2023-07-29T15:28:07;3.35;;;1.90;;
25962;SDS011;13760;52.588;13.406;2023-07-29T15:30:43;2.03;;;1.70;;
25962;SDS011;13760;52.588;13.406;2023-07-29T15:33:17;2.60;;;1.48;;
25962;SDS011;13760;52.588;13.406;2023-07-29T15:35:59;2.00;;;1.80;;
25962;SDS011;13760;52.588;13.406;2023-07-29T15:38:25;4.28;;;1.70;;
25962;SDS011;13760;52.588;13.406;2023-07-29T15:40:56;2.03;;;1.83;;
25962;SDS011;13760;52.588;13.406;2023-07-29T15:43:22;3.05;;;2.20;;